Time;durP1;ratioP1;P1;durP2;ratioP2;P2;SDS_P1;SDS_P2;PMS_P1;PMS_P2;Temp;Humidity;BMP_temperature;BMP_pressure;BME280_temperature;BME280_humidity;BME280_pressure;Samples;Min_cycle;Max_cycle;Signal;HPM_P1;HPM_P2
2022/11/13 00:02:01;;;;;;;26.90;24.90;;;10.80;34.80;;;;;;4945580;28;20316;-57
2022/11/13 00:04:27;;;;;;;25.30;23.63;;;10.80;34.70;;;;;;4948793;28;20221;-58
2022/11/13 00:06:52;;;;;;;25.70;23.90;;;10.80;35.10;;;;;;4944774;28;20256;-57
2022/11/13 00:09:18;;;;;;;25.57;23.77;;;10.70;35.00;;;;;;4947371;28;20324;-57
2022/11/13 00:11:44;;;;;;;26.37;24.57;;;10.70;35.00;;;;;;4945706;28;20557;-57
2022/11/13 00:14:09;;;;;;;25.97;24.10;;;10.70;35.60;;;;;;4946644;28;20606;-58
2022/11/13 00:16:35;;;;;;;25.33;23.63;;;10.70;34.90;;;;;;4944254;28;20312;-58
2022/11/13 00:19:01;;;;;;;22.93;21.33;;;10.70;34.60;;;;;;4946824;28;20248;-58
2022/11/13 00:21:26;;;;;;;24.07;22.37;;;10.70;34.50;;;;;;4948489;28;20222;-58
2022/11/13 00:23:54;;;;;;;23.33;21.73;;;10.60;34.40;;;;;;4945657;28;20240;-58
2022/11/13 00:26:26;;;;;;;23.00;21.00;;;10.60;34.10;;;;;;4945031;28;20630;-57
2022/11/13 00:28:57;;;;;;;22.43;20.93;;;10.60;33.80;;;;;;4945608;28;21237;-57
2022/11/13 00:31:24;;;;;;;23.10;21.40;;;10.60;33.60;;;;;;4944912;28;20544;-58
2022/11/13 00:33:50;;;;;;;21.30;19.90;;;10.60;33.50;;;;;;4944162;28;21027;-58
2022/11/13 00:36:18;;;;;;;22.90;21.40;;;10.50;33.70;;;;;;4947551;28;20559;-58
2022/11/13 00:38:44;;;;;;;23.20;21.80;;;10.50;33.70;;;;;;4945622;28;20457;-58
2022/11/13 00:41:11;;;;;;;23.97;22.50;;;10.50;33.60;;;;;;4947097;28;20445;-58
2022/11/13 00:43:37;;;;;;;25.47;23.67;;;10.60;33.40;;;;;;4945214;28;20580;-58
2022/11/13 00:46:02;;;;;;;25.83;23.87;;;10.50;33.60;;;;;;4943720;28;20457;-58
2022/11/13 00:48:28;;;;;;;25.10;23.50;;;10.50;33.50;;;;;;4946055;28;20599;-58
2022/11/13 00:50:54;;;;;;;26.03;24.23;;;10.50;34.20;;;;;;4944522;28;20233;-58
2022/11/13 00:53:20;;;;;;;24.70;23.00;;;10.50;34.10;;;;;;4944515;28;20295;-58
2022/11/13 00:55:45;;;;;;;24.60;22.77;;;10.50;33.80;;;;;;4963262;28;20311;-59
2022/11/13 00:58:12;;;;;;;25.97;24.27;;;10.50;33.90;;;;;;4946524;28;20718;-58
2022/11/13 01:00:39;;;;;;;23.80;22.20;;;10.50;33.60;;;;;;4945672;28;20485;-58
2022/11/13 01:03:05;;;;;;;24.10;22.50;;;10.50;33.50;;;;;;4945018;28;20447;-55
2022/11/13 01:05:33;;;;;;;24.27;22.60;;;10.50;33.60;;;;;;4946919;28;20460;-51
2022/11/13 01:07:59;;;;;;;24.57;22.77;;;10.50;33.70;;;;;;4945118;28;20237;-52
2022/11/13 01:10:25;;;;;;;25.00;23.30;;;10.50;33.60;;;;;;4943427;28;20456;-57
2022/11/13 01:12:50;;;;;;;25.40;23.80;;;10.40;33.50;;;;;;4964432;28;21195;-58
2022/11/13 01:15:16;;;;;;;25.93;23.97;;;10.40;33.80;;;;;;4946582;28;21074;-58
2022/11/13 01:17:42;;;;;;;25.13;23.30;;;10.40;34.00;;;;;;4945494;28;20225;-51
2022/11/13 01:20:08;;;;;;;24.47;22.87;;;10.40;33.70;;;;;;4946180;28;20237;-53
2022/11/13 01:22:34;;;;;;;25.13;23.13;;;10.40;33.80;;;;;;4943715;28;20324;-53
2022/11/13 01:24:59;;;;;;;25.97;24.17;;;10.30;33.90;;;;;;4950495;28;20907;-50
2022/11/13 01:27:25;;;;;;;24.10;22.47;;;10.30;33.80;;;;;;4950145;28;20226;-53
2022/11/13 01:29:51;;;;;;;23.37;21.87;;;10.30;33.40;;;;;;4948260;28;20229;-51
2022/11/13 01:32:16;;;;;;;24.57;23.07;;;10.30;33.50;;;;;;4949153;28;20260;-58
2022/11/13 01:34:42;;;;;;;24.33;22.70;;;10.40;33.40;;;;;;4951634;28;20611;-58
2022/11/13 01:37:08;;;;;;;24.00;22.30;;;10.30;33.50;;;;;;4956067;28;20233;-54
2022/11/13 01:39:33;;;;;;;24.30;22.80;;;10.30;33.40;;;;;;4966518;28;20226;-57
2022/11/13 01:42:00;;;;;;;23.67;22.10;;;10.20;33.40;;;;;;4964181;28;20702;-56
2022/11/13 01:44:43;;;;;;;23.23;21.73;;;10.20;33.40;;;;;;4964149;28;20255;-57
2022/11/13 01:47:09;;;;;;;23.30;21.70;;;10.30;33.50;;;;;;4961890;28;20460;-59
2022/11/13 01:49:39;;;;;;;23.40;21.77;;;10.20;33.30;;;;;;4961931;28;20532;-53
2022/11/13 01:52:19;;;;;;;25.27;23.67;;;10.00;32.80;;;;;;4962428;28;20777;-51
2022/11/13 01:54:54;;;;;;;27.10;25.13;;;9.70;35.30;;;;;;4965992;28;20567;-53
2022/11/13 01:57:20;;;;;;;27.17;25.33;;;9.30;36.50;;;;;;4961431;28;21035;-52
2022/11/13 01:59:53;;;;;;;29.17;27.10;;;9.00;37.50;;;;;;4963399;28;20514;-54
2022/11/13 02:02:20;;;;;;;30.57;28.30;;;8.70;38.90;;;;;;4961682;28;20461;-54
2022/11/13 02:04:46;;;;;;;31.30;29.00;;;8.60;39.30;;;;;;4963325;28;20449;-53
2022/11/13 02:07:16;;;;;;;31.00;28.90;;;8.40;40.50;;;;;;4959725;28;21032;-54
2022/11/13 02:09:52;;;;;;;30.00;27.90;;;8.20;41.10;;;;;;4963621;28;20460;-55
2022/11/13 02:12:31;;;;;;;31.87;29.63;;;8.20;41.10;;;;;;4962998;28;21047;-53
2022/11/13 02:14:59;;;;;;;31.33;29.07;;;8.20;41.10;;;;;;4964371;28;20980;-52
2022/11/13 02:17:31;;;;;;;32.10;29.70;;;8.00;40.90;;;;;;4962431;28;20801;-52
2022/11/13 02:20:00;;;;;;;31.70;29.40;;;7.90;41.80;;;;;;4963930;28;20888;-54
2022/11/13 02:22:29;;;;;;;30.90;28.80;;;7.70;42.30;;;;;;4961705;28;20827;-52
2022/11/13 02:24:58;;;;;;;31.17;28.90;;;7.70;42.80;;;;;;4963633;28;20468;-53
2022/11/13 02:27:33;;;;;;;28.93;26.93;;;7.80;42.10;;;;;;4962134;28;20460;-54
2022/11/13 02:30:09;;;;;;;30.73;28.60;;;7.70;42.80;;;;;;4962421;28;20464;-54
2022/11/13 02:32:35;;;;;;;28.83;26.70;;;7.80;42.10;;;;;;4960463;28;20461;-53
2022/11/13 02:35:00;;;;;;;31.00;28.67;;;7.70;42.50;;;;;;4960127;28;20465;-53
2022/11/13 02:37:26;;;;;;;33.60;31.10;;;7.60;43.40;;;;;;4962526;28;20706;-53
2022/11/13 02:39:51;;;;;;;31.23;29.03;;;7.60;43.30;;;;;;4963926;28;20596;-53
2022/11/13 02:42:17;;;;;;;31.07;28.50;;;7.50;43.30;;;;;;4967098;28;20222;-53
2022/11/13 02:44:43;;;;;;;31.40;29.20;;;7.50;44.10;;;;;;4963190;28;20229;-51
2022/11/13 02:47:08;;;;;;;34.80;31.80;;;7.60;43.90;;;;;;4964547;28;20230;-50
2022/11/13 02:49:34;;;;;;;32.77;30.30;;;7.50;43.90;;;;;;4961245;28;20344;-52
2022/11/13 02:51:59;;;;;;;32.07;29.60;;;7.50;44.40;;;;;;4957493;28;20241;-52
2022/11/13 02:54:25;;;;;;;31.70;29.27;;;7.50;44.60;;;;;;4961317;28;20246;-51
2022/11/13 02:56:51;;;;;;;33.40;30.80;;;7.50;44.30;;;;;;4962821;28;20264;-53
2022/11/13 02:59:16;;;;;;;30.87;28.37;;;7.50;43.90;;;;;;4961161;28;20238;-50
2022/11/13 03:01:42;;;;;;;28.87;26.83;;;7.40;44.60;;;;;;4963426;28;20284;-50
2022/11/13 03:04:07;;;;;;;31.07;28.67;;;7.50;44.80;;;;;;4962281;28;20229;-53
2022/11/13 03:06:33;;;;;;;29.90;27.50;;;7.50;44.50;;;;;;4962991;28;20276;-51
2022/11/13 03:08:59;;;;;;;30.27;27.87;;;7.30;45.00;;;;;;4962703;28;20335;-53
2022/11/13 03:11:24;;;;;;;30.17;27.97;;;7.30;45.10;;;;;;4963537;28;20217;-58
2022/11/13 03:13:50;;;;;;;31.27;29.00;;;7.40;45.10;;;;;;4963518;28;20238;-57
2022/11/13 03:16:16;;;;;;;29.73;27.73;;;7.40;45.10;;;;;;4961663;28;20737;-58
2022/11/13 03:18:42;;;;;;;30.27;28.17;;;7.40;46.10;;;;;;4963000;28;20233;-58
2022/11/13 03:21:11;;;;;;;28.60;26.40;;;7.60;45.60;;;;;;4960581;28;20484;-58
2022/11/13 03:23:37;;;;;;;28.73;26.73;;;7.90;44.60;;;;;;4964462;28;20236;-58
2022/11/13 03:26:10;;;;;;;29.23;27.03;;;8.20;43.30;;;;;;4961499;28;20508;-57
2022/11/13 03:28:36;;;;;;;29.23;26.77;;;8.40;42.20;;;;;;4961849;28;20955;-58
2022/11/13 03:31:02;;;;;;;26.93;25.13;;;8.50;41.30;;;;;;4961174;28;20457;-57
2022/11/13 03:33:28;;;;;;;28.00;26.00;;;8.60;40.90;;;;;;4961933;28;20302;-57
2022/11/13 03:35:54;;;;;;;25.43;23.70;;;8.70;40.30;;;;;;4960001;28;20470;-57
2022/11/13 03:38:20;;;;;;;26.23;24.20;;;8.80;40.00;;;;;;4963354;28;20576;-57
2022/11/13 03:40:46;;;;;;;25.73;23.90;;;8.80;39.90;;;;;;4962780;28;20327;-57
2022/11/13 03:43:12;;;;;;;25.87;24.07;;;8.80;39.30;;;;;;4961202;28;20449;-57
2022/11/13 03:45:37;;;;;;;28.20;26.20;;;8.40;40.90;;;;;;4959890;28;20225;-51
2022/11/13 03:48:03;;;;;;;26.77;24.77;;;8.20;41.00;;;;;;4959907;28;20312;-52
2022/11/13 03:50:29;;;;;;;27.17;25.37;;;8.10;41.00;;;;;;4961274;28;20222;-52
2022/11/13 03:52:55;;;;;;;28.03;26.10;;;7.90;41.90;;;;;;4958078;28;20456;-50
2022/11/13 03:55:20;;;;;;;25.40;23.73;;;7.70;42.90;;;;;;4960636;28;20234;-53
2022/11/13 03:57:46;;;;;;;25.87;24.00;;;7.40;44.00;;;;;;4961308;28;20503;-51
2022/11/13 04:00:13;;;;;;;26.30;24.50;;;7.30;44.50;;;;;;4963628;28;20236;-51
2022/11/13 04:02:39;;;;;;;26.90;25.00;;;7.10;45.70;;;;;;4960068;28;20653;-53
2022/11/13 04:05:05;;;;;;;23.97;22.17;;;7.30;46.30;;;;;;4960651;28;20861;-58
2022/11/13 04:07:31;;;;;;;26.57;24.77;;;7.40;44.60;;;;;;4960887;28;20230;-58
2022/11/13 04:09:57;;;;;;;27.57;25.57;;;7.40;45.00;;;;;;4960146;28;20694;-58
2022/11/13 04:12:22;;;;;;;20.30;19.10;;;7.20;44.90;;;;;;4963306;28;20240;-52
2022/11/13 04:14:48;;;;;;;20.20;19.10;;;7.40;45.80;;;;;;4962897;28;20238;-53
2022/11/13 04:17:13;;;;;;;21.70;20.30;;;7.70;43.70;;;;;;4964878;28;20282;-51
2022/11/13 04:19:39;;;;;;;25.10;23.50;;;8.00;41.60;;;;;;4961920;28;20585;-52
2022/11/13 04:22:05;;;;;;;23.30;21.90;;;8.00;41.00;;;;;;4963080;28;20641;-51
2022/11/13 04:24:30;;;;;;;24.17;22.67;;;8.00;42.20;;;;;;4962022;28;20229;-52
2022/11/13 04:26:56;;;;;;;25.20;23.40;;;8.20;40.40;;;;;;4965445;28;21031;-52
2022/11/13 04:29:21;;;;;;;25.40;23.60;;;8.20;40.80;;;;;;4965031;28;20599;-51
2022/11/13 04:31:47;;;;;;;25.03;23.50;;;8.00;40.90;;;;;;4963708;28;20234;-55
2022/11/13 04:34:13;;;;;;;26.30;24.60;;;7.80;41.50;;;;;;4963549;28;20245;-49
2022/11/13 04:36:38;;;;;;;27.53;25.60;;;7.90;42.60;;;;;;4962685;28;20238;-55
2022/11/13 04:39:04;;;;;;;26.60;24.80;;;8.00;42.20;;;;;;4964883;28;20237;-53
2022/11/13 04:44:14;;;;;;;27.57;25.57;;;7.80;41.90;;;;;;4969050;28;20475;-57
2022/11/13 04:46:40;;;;;;;27.47;25.60;;;7.70;43.10;;;;;;4967142;28;20461;-58
2022/11/13 04:49:06;;;;;;;26.20;24.10;;;7.80;43.30;;;;;;4968702;28;20240;-57
2022/11/13 04:51:31;;;;;;;25.80;24.00;;;7.70;43.40;;;;;;4967730;28;20254;-58
2022/11/13 04:53:57;;;;;;;26.07;24.13;;;7.80;43.20;;;;;;4970482;28;20230;-58
2022/11/13 04:56:23;;;;;;;25.83;24.10;;;7.80;43.70;;;;;;4968839;28;20256;-59
2022/11/13 04:58:48;;;;;;;24.17;22.57;;;7.70;42.90;;;;;;4975353;28;20260;-59
2022/11/13 05:01:14;;;;;;;24.83;23.10;;;7.90;43.80;;;;;;4975049;28;20327;-58
2022/11/13 05:03:39;;;;;;;21.50;20.20;;;8.20;42.50;;;;;;4976839;28;20233;-59
2022/11/13 05:06:08;;;;;;;22.33;20.87;;;7.90;41.50;;;;;;4979239;28;20256;-59
2022/11/13 05:08:34;;;;;;;23.40;21.90;;;7.70;42.30;;;;;;4974988;28;20240;-59
2022/11/13 05:11:00;;;;;;;24.17;22.50;;;7.80;43.70;;;;;;4976841;28;20460;-58
2022/11/13 05:13:28;;;;;;;28.60;26.43;;;8.00;42.50;;;;;;4977820;28;20464;-58
2022/11/13 05:16:06;;;;;;;27.57;25.63;;;7.90;40.90;;;;;;4979758;28;20817;-59
2022/11/13 05:18:33;;;;;;;27.97;25.77;;;7.40;43.80;;;;;;4976662;28;20448;-58
2022/11/13 05:20:58;;;;;;;26.80;24.97;;;7.20;45.20;;;;;;4978815;28;20783;-59
2022/11/13 05:23:24;;;;;;;27.37;25.23;;;7.00;46.40;;;;;;4979837;28;20800;-58
2022/11/13 05:25:50;;;;;;;26.53;24.33;;;6.80;47.10;;;;;;4978882;28;20817;-53
2022/11/13 05:28:16;;;;;;;26.53;24.63;;;6.60;48.40;;;;;;4976152;28;20229;-52
2022/11/13 05:30:42;;;;;;;28.07;25.97;;;6.60;49.20;;;;;;4979230;28;20982;-51
2022/11/13 05:33:07;;;;;;;28.40;25.93;;;6.70;49.50;;;;;;4977461;28;20230;-53
2022/11/13 05:35:33;;;;;;;27.27;25.27;;;6.70;49.30;;;;;;4979689;28;20225;-54
2022/11/13 05:38:00;;;;;;;25.40;23.57;;;6.80;48.70;;;;;;4960231;28;20232;-58
2022/11/13 05:40:26;;;;;;;27.03;25.13;;;6.80;48.50;;;;;;4960288;28;20446;-59
2022/11/13 05:42:53;;;;;;;25.40;23.77;;;6.80;49.50;;;;;;4961421;28;20460;-57
2022/11/13 05:45:18;;;;;;;27.00;25.20;;;7.10;48.70;;;;;;4958399;28;20480;-58
2022/11/13 05:47:44;;;;;;;23.40;22.00;;;7.50;46.80;;;;;;4961348;28;20492;-57
2022/11/13 05:50:10;;;;;;;23.80;22.20;;;7.70;44.80;;;;;;4958244;28;20233;-58
2022/11/13 05:52:35;;;;;;;23.13;21.50;;;7.80;44.20;;;;;;4960231;28;20226;-52
2022/11/13 05:55:01;;;;;;;23.50;22.00;;;8.00;43.40;;;;;;4958298;28;20288;-52
2022/11/13 05:57:27;;;;;;;24.87;23.23;;;8.20;41.70;;;;;;4959486;28;20317;-50
2022/11/13 05:59:52;;;;;;;22.17;20.77;;;8.40;41.20;;;;;;4958476;28;20479;-50
2022/11/13 06:02:18;;;;;;;22.47;20.87;;;8.10;41.00;;;;;;4959944;28;20226;-54
2022/11/13 06:04:43;;;;;;;21.70;20.40;;;8.10;41.00;;;;;;4955757;28;20284;-54
2022/11/13 06:07:09;;;;;;;21.97;20.67;;;8.20;39.90;;;;;;4958964;28;20230;-52
2022/11/13 06:09:35;;;;;;;19.43;18.33;;;8.30;39.20;;;;;;4959204;28;20323;-52
2022/11/13 06:12:00;;;;;;;20.40;19.20;;;8.40;38.30;;;;;;4955546;28;20233;-53
2022/11/13 06:14:26;;;;;;;19.87;18.77;;;8.50;37.70;;;;;;4956948;28;20233;-54
2022/11/13 06:16:51;;;;;;;20.10;18.83;;;8.50;37.20;;;;;;4955348;28;20239;-58
2022/11/13 06:19:17;;;;;;;19.77;18.57;;;8.30;36.90;;;;;;4956330;28;20606;-58
2022/11/13 06:21:43;;;;;;;18.80;17.80;;;7.90;38.20;;;;;;4953182;28;20245;-51
2022/11/13 06:24:11;;;;;;;17.97;16.97;;;7.60;39.40;;;;;;4955474;28;20229;-54
2022/11/13 06:26:37;;;;;;;17.60;16.40;;;7.60;40.60;;;;;;4955055;28;20233;-51
2022/11/13 06:29:05;;;;;;;16.93;16.03;;;7.80;39.70;;;;;;4955060;28;20561;-54
2022/11/13 06:31:34;;;;;;;17.13;16.17;;;7.90;38.70;;;;;;4956934;28;20513;-50
2022/11/13 06:34:00;;;;;;;17.30;16.30;;;8.00;38.60;;;;;;4956345;28;20528;-52
2022/11/13 06:36:28;;;;;;;16.93;16.13;;;8.10;37.70;;;;;;4956960;28;20877;-54
2022/11/13 06:38:54;;;;;;;16.70;15.87;;;8.20;36.80;;;;;;4955612;28;20465;-51
2022/11/13 06:41:23;;;;;;;16.73;15.83;;;8.10;36.90;;;;;;4953338;28;20470;-55
2022/11/13 06:43:49;;;;;;;16.70;15.90;;;8.20;37.60;;;;;;4956041;28;20770;-53
2022/11/13 06:46:23;;;;;;;16.67;15.87;;;8.20;36.80;;;;;;4958705;28;20458;-54
2022/11/13 06:48:49;;;;;;;16.30;15.50;;;8.10;37.00;;;;;;4954920;28;20445;-52
2022/11/13 06:51:20;;;;;;;15.83;15.03;;;8.20;36.70;;;;;;4956665;28;20458;-54
2022/11/13 06:53:46;;;;;;;16.30;15.50;;;8.20;36.50;;;;;;4955143;28;21002;-52
2022/11/13 06:56:13;;;;;;;16.57;15.67;;;8.20;36.00;;;;;;4951546;28;20452;-52
2022/11/13 06:58:39;;;;;;;16.53;15.63;;;8.20;35.60;;;;;;4956744;28;20605;-54
2022/11/13 07:01:10;;;;;;;17.47;16.47;;;8.20;35.70;;;;;;4957567;28;20875;-51
2022/11/13 07:03:37;;;;;;;15.80;15.00;;;8.20;35.40;;;;;;4953430;28;20478;-53
2022/11/13 07:06:08;;;;;;;16.20;15.43;;;8.20;35.20;;;;;;4947178;28;20505;-53
2022/11/13 07:08:35;;;;;;;15.63;14.83;;;7.80;35.90;;;;;;4954780;28;21409;-53
2022/11/13 07:11:00;;;;;;;15.77;14.97;;;7.90;36.50;;;;;;4946642;28;20452;-52
2022/11/13 07:13:27;;;;;;;15.13;14.43;;;8.10;35.60;;;;;;4949036;28;20540;-54
2022/11/13 07:15:53;;;;;;;15.83;15.03;;;8.20;34.60;;;;;;4956831;28;20250;-56
2022/11/13 07:18:21;;;;;;;15.43;14.53;;;8.20;34.10;;;;;;4959272;28;20524;-56
2022/11/13 07:20:47;;;;;;;15.43;14.63;;;8.30;34.20;;;;;;4953198;28;20454;-60
2022/11/13 07:23:12;;;;;;;15.30;14.50;;;8.20;33.80;;;;;;4955200;28;20786;-56
2022/11/13 07:25:38;;;;;;;16.13;15.33;;;8.20;33.10;;;;;;4954192;28;20235;-55
2022/11/13 07:28:04;;;;;;;16.10;15.30;;;8.20;33.80;;;;;;4955222;28;20233;-56
2022/11/13 07:30:29;;;;;;;15.67;14.90;;;8.20;34.20;;;;;;4953270;28;20230;-54
2022/11/13 07:32:55;;;;;;;14.83;14.13;;;8.30;34.10;;;;;;4955963;28;20916;-58
2022/11/13 07:35:21;;;;;;;15.70;15.00;;;8.30;33.50;;;;;;4949423;28;20321;-55
2022/11/13 07:37:46;;;;;;;15.67;14.87;;;8.40;33.30;;;;;;4954547;28;20293;-56
2022/11/13 07:40:12;;;;;;;15.17;14.50;;;8.40;33.40;;;;;;4953341;28;20295;-55
2022/11/13 07:42:38;;;;;;;14.83;14.17;;;8.40;32.50;;;;;;4954209;28;20238;-54
2022/11/13 07:45:04;;;;;;;15.13;14.43;;;7.90;32.60;;;;;;4956338;28;20266;-56
2022/11/13 07:47:30;;;;;;;14.93;14.23;;;7.80;34.80;;;;;;4950105;28;20461;-52
2022/11/13 07:49:56;;;;;;;15.00;14.30;;;7.90;34.20;;;;;;4950183;28;20453;-55
2022/11/13 07:52:21;;;;;;;14.30;13.60;;;8.00;34.00;;;;;;4942943;28;20249;-55
2022/11/13 07:54:47;;;;;;;13.47;12.87;;;8.10;33.40;;;;;;4949244;28;20253;-54
2022/11/13 07:57:13;;;;;;;15.27;14.57;;;8.20;33.20;;;;;;4955335;28;20233;-56
2022/11/13 07:59:38;;;;;;;15.20;14.50;;;8.20;33.00;;;;;;4953026;28;20227;-55
2022/11/13 08:02:05;;;;;;;15.70;14.90;;;8.20;32.90;;;;;;4950530;28;20226;-55
2022/11/13 08:04:31;;;;;;;13.90;13.30;;;8.20;33.10;;;;;;4946278;28;20261;-49
2022/11/13 08:06:56;;;;;;;15.17;14.37;;;8.00;33.70;;;;;;4953629;28;20484;-51
2022/11/13 08:09:22;;;;;;;13.80;13.20;;;7.70;34.00;;;;;;4955026;28;20310;-51
2022/11/13 08:11:48;;;;;;;16.10;15.30;;;7.40;35.40;;;;;;4953602;28;20890;-49
2022/11/13 08:14:13;;;;;;;15.27;14.53;;;7.20;36.00;;;;;;4956181;28;20270;-49
2022/11/13 08:16:39;;;;;;;15.77;14.97;;;6.90;37.90;;;;;;4956699;28;20230;-50
2022/11/13 08:19:05;;;;;;;15.13;14.43;;;6.90;38.60;;;;;;4959450;28;20233;-54
2022/11/13 08:21:30;;;;;;;15.90;15.10;;;7.10;37.40;;;;;;4977685;28;20261;-54
2022/11/13 08:23:56;;;;;;;15.90;15.10;;;7.00;38.40;;;;;;4975313;28;20229;-53
2022/11/13 08:26:21;;;;;;;14.90;14.20;;;7.30;37.70;;;;;;4976778;28;20233;-54
2022/11/13 08:28:48;;;;;;;14.80;14.10;;;7.50;36.90;;;;;;4978020;28;20217;-52
2022/11/13 08:31:15;;;;;;;16.57;15.77;;;7.60;36.10;;;;;;4977680;28;20321;-51
2022/11/13 08:33:41;;;;;;;14.60;13.90;;;7.60;35.10;;;;;;4967343;28;20994;-51
2022/11/13 08:36:08;;;;;;;15.50;14.80;;;7.30;36.40;;;;;;4977713;28;20512;-50
2022/11/13 08:38:34;;;;;;;16.60;15.87;;;7.00;37.80;;;;;;4979034;28;20834;-54
2022/11/13 08:41:02;;;;;;;15.70;14.90;;;6.90;38.30;;;;;;4978127;28;20444;-52
2022/11/13 08:43:28;;;;;;;15.77;14.97;;;6.70;39.90;;;;;;4976188;28;20234;-53
2022/11/13 08:45:54;;;;;;;16.17;15.30;;;6.80;40.00;;;;;;4975825;28;21065;-50
2022/11/13 08:48:21;;;;;;;16.70;15.90;;;7.10;39.70;;;;;;4955083;28;20464;-53
2022/11/13 08:50:53;;;;;;;15.50;14.80;;;7.40;38.50;;;;;;4954647;28;20667;-54
2022/11/13 08:53:19;;;;;;;18.37;17.33;;;7.60;36.90;;;;;;4955334;28;20438;-56
2022/11/13 08:55:45;;;;;;;24.60;23.00;;;7.40;37.10;;;;;;4954642;28;20721;-54
2022/11/13 08:58:10;;;;;;;15.43;14.63;;;7.60;37.90;;;;;;4955702;28;20556;-54
2022/11/13 09:00:36;;;;;;;15.40;14.60;;;7.50;37.50;;;;;;4954325;28;20337;-58
2022/11/13 09:03:02;;;;;;;17.23;16.33;;;7.30;38.40;;;;;;4955281;28;20234;-58
2022/11/13 09:05:28;;;;;;;16.10;15.30;;;7.20;39.10;;;;;;4952985;28;20314;-58
2022/11/13 09:07:58;;;;;;;15.97;15.17;;;7.50;38.70;;;;;;4953576;28;20937;-53
2022/11/13 09:10:25;;;;;;;16.70;15.90;;;7.50;38.20;;;;;;4951621;28;20234;-53
2022/11/13 09:13:02;;;;;;;15.77;14.97;;;7.60;38.20;;;;;;4953619;28;20475;-55
2022/11/13 09:15:30;;;;;;;17.07;16.27;;;7.50;37.50;;;;;;4954907;28;20926;-53
2022/11/13 09:18:01;;;;;;;16.90;15.90;;;7.40;38.10;;;;;;4952905;28;20458;-54
2022/11/13 09:20:28;;;;;;;16.67;15.77;;;7.30;38.40;;;;;;4954426;28;20488;-53
2022/11/13 09:23:06;;;;;;;16.57;15.73;;;7.10;39.40;;;;;;4955448;28;20946;-51
2022/11/13 09:25:34;;;;;;;18.23;17.23;;;7.20;40.20;;;;;;4951338;28;20456;-54
2022/11/13 09:28:02;;;;;;;19.57;18.47;;;7.30;39.40;;;;;;4953211;28;20536;-54
2022/11/13 09:30:29;;;;;;;18.40;17.40;;;7.20;40.20;;;;;;4952877;28;20454;-53
2022/11/13 09:32:56;;;;;;;18.57;17.57;;;7.10;41.10;;;;;;4954377;28;20466;-53
2022/11/13 09:35:33;;;;;;;18.50;17.50;;;7.40;40.50;;;;;;4952976;28;20462;-50
2022/11/13 09:38:04;;;;;;;32.90;30.20;;;7.40;39.20;;;;;;4954102;28;20465;-56
2022/11/13 09:40:59;;;;;;;17.67;16.70;;;7.60;40.00;;;;;;4951112;28;20890;-53
2022/11/13 09:43:32;;;;;;;18.70;17.60;;;7.70;38.20;;;;;;4909295;28;20862;-53
2022/11/13 09:46:04;;;;;;;16.63;15.73;;;7.60;38.80;;;;;;4955403;28;20880;-53
2022/11/13 09:48:33;;;;;;;17.30;16.50;;;7.50;39.50;;;;;;4956299;28;20457;-50
2022/11/13 09:51:04;;;;;;;17.27;16.37;;;7.60;38.90;;;;;;4956933;28;20520;-53
2022/11/13 09:53:34;;;;;;;18.50;17.60;;;7.50;39.00;;;;;;4955108;28;21080;-53
2022/11/13 09:56:12;;;;;;;17.33;16.53;;;7.50;39.30;;;;;;4956953;28;20460;-52
2022/11/13 09:58:58;;;;;;;17.90;16.97;;;7.60;40.00;;;;;;4955221;28;20450;-53
2022/11/13 10:01:36;;;;;;;18.83;17.73;;;7.70;38.60;;;;;;4955253;28;20528;-50
2022/11/13 10:04:06;;;;;;;18.97;17.93;;;7.50;40.00;;;;;;4956099;28;20697;-52
2022/11/13 10:06:47;;;;;;;18.70;17.70;;;7.60;39.20;;;;;;4954122;28;20493;-54
2022/11/13 10:09:19;;;;;;;18.77;17.77;;;7.50;39.70;;;;;;4959230;28;20982;-54
2022/11/13 10:11:55;;;;;;;18.07;17.00;;;7.60;39.70;;;;;;4956664;28;20549;-53
2022/11/13 10:14:31;;;;;;;19.60;18.60;;;7.60;39.80;;;;;;4956957;28;20536;-52
2022/11/13 10:17:02;;;;;;;18.70;17.70;;;7.70;39.60;;;;;;4956084;28;20537;-52
2022/11/13 10:19:40;;;;;;;18.70;17.80;;;7.80;39.50;;;;;;4955302;28;20508;-54
2022/11/13 10:22:19;;;;;;;18.43;17.43;;;8.00;39.50;;;;;;4957984;28;20485;-52
2022/11/13 10:24:49;;;;;;;17.03;16.13;;;8.30;37.90;;;;;;4956532;28;20449;-53
2022/11/13 10:27:15;;;;;;;18.73;17.77;;;8.20;37.90;;;;;;4958188;28;20811;-52
2022/11/13 10:29:41;;;;;;;18.63;17.50;;;8.30;39.10;;;;;;4954995;28;20450;-53
2022/11/13 10:32:18;;;;;;;17.50;16.60;;;8.30;38.00;;;;;;4956391;28;20807;-52
2022/11/13 10:34:56;;;;;;;18.43;17.43;;;8.40;37.80;;;;;;4956527;28;20480;-52
2022/11/13 10:37:46;;;;;;;17.20;16.20;;;8.30;37.90;;;;;;4955192;28;20840;-53
2022/11/13 10:40:23;;;;;;;19.00;17.90;;;8.50;38.20;;;;;;4954026;28;20462;-52
2022/11/13 10:43:22;;;;;;;18.60;17.60;;;8.70;37.40;;;;;;4956823;28;20466;-54
2022/11/13 10:45:59;;;;;;;18.40;17.50;;;8.70;36.90;;;;;;4956243;28;20953;-53
2022/11/13 10:48:33;;;;;;;18.60;17.60;;;8.80;37.80;;;;;;4955026;28;20461;-50
2022/11/13 10:51:41;;;;;;;18.10;17.17;;;9.00;37.30;;;;;;4957889;28;20504;-53
2022/11/13 10:54:31;;;;;;;18.37;17.37;;;9.20;36.60;;;;;;4883890;29;21000;-53
2022/11/13 10:57:05;;;;;;;19.20;18.10;;;9.20;35.80;;;;;;4969155;28;20442;-53
2022/11/13 10:59:43;;;;;;;18.40;17.40;;;9.00;35.80;;;;;;4958731;28;20438;-56
2022/11/13 11:02:22;;;;;;;19.23;18.13;;;9.00;37.40;;;;;;4952313;28;20528;-54
2022/11/13 11:04:48;;;;;;;18.03;17.03;;;9.00;36.60;;;;;;4956500;28;20457;-61
2022/11/13 11:07:21;;;;;;;19.03;18.03;;;9.20;36.90;;;;;;4958964;28;20516;-55
2022/11/13 11:09:48;;;;;;;20.50;19.33;;;9.10;37.10;;;;;;4956335;28;20454;-56
2022/11/13 11:12:20;;;;;;;19.40;18.10;;;9.30;36.10;;;;;;4954006;28;20457;-57
2022/11/13 11:14:57;;;;;;;19.33;18.33;;;9.40;36.20;;;;;;4957661;28;20499;-57
2022/11/13 11:17:38;;;;;;;19.90;18.80;;;9.50;35.30;;;;;;4955554;28;20817;-57
2022/11/13 11:20:19;;;;;;;20.57;19.47;;;9.50;35.60;;;;;;4948129;28;20581;-53
2022/11/13 11:22:50;;;;;;;20.40;19.30;;;9.40;36.20;;;;;;4951231;28;20482;-54
2022/11/13 11:25:42;;;;;;;19.90;18.77;;;9.50;35.90;;;;;;4956825;28;20486;-53
2022/11/13 11:28:28;;;;;;;19.80;18.70;;;9.40;35.70;;;;;;4940167;29;20454;-55
2022/11/13 11:31:14;;;;;;;19.00;17.90;;;9.50;36.20;;;;;;4941054;28;20447;-54
2022/11/13 11:34:12;;;;;;;19.27;18.17;;;9.50;36.10;;;;;;4949568;28;20546;-55
2022/11/13 11:37:02;;;;;;;19.43;18.33;;;9.70;36.50;;;;;;4957911;28;20812;-55
2022/11/13 11:39:38;;;;;;;18.67;17.67;;;9.90;35.80;;;;;;4943671;28;20477;-55
2022/11/13 11:42:35;;;;;;;18.50;17.40;;;10.20;34.40;;;;;;4958706;28;20442;-54
2022/11/13 11:45:15;;;;;;;20.77;19.50;;;10.10;33.50;;;;;;4978530;28;20512;-54
2022/11/13 11:47:41;;;;;;;19.93;18.87;;;10.10;34.30;;;;;;4962106;28;21172;-56
2022/11/13 11:50:17;;;;;;;19.20;18.20;;;10.10;33.70;;;;;;4980139;28;20441;-56
2022/11/13 11:53:53;;;;;;;18.50;17.50;;;10.00;34.30;;;;;;4961684;28;20528;-56
2022/11/13 11:56:22;;;;;;;19.97;18.87;;;10.10;34.10;;;;;;4869530;29;21354;-54
2022/11/13 11:59:10;;;;;;;20.83;19.63;;;10.10;33.80;;;;;;4860799;29;20451;-54
2022/11/13 12:01:45;;;;;;;20.17;19.07;;;10.30;34.40;;;;;;4929566;28;20566;-54
2022/11/13 12:04:44;;;;;;;19.33;18.27;;;10.20;33.60;;;;;;4923009;29;20501;-53
2022/11/13 12:07:34;;;;;;;17.83;16.83;;;10.30;34.30;;;;;;4941001;28;20434;-54
2022/11/13 12:10:08;;;;;;;28.43;26.33;;;10.50;33.70;;;;;;4943221;28;20520;-54
2022/11/13 12:12:49;;;;;;;18.87;17.87;;;10.60;33.40;;;;;;4941847;28;20954;-55
2022/11/13 12:15:18;;;;;;;19.07;18.00;;;10.80;33.00;;;;;;4939776;28;20490;-54
2022/11/13 12:17:44;;;;;;;19.60;18.50;;;10.90;32.30;;;;;;4943104;28;20489;-57
2022/11/13 12:20:34;;;;;;;18.50;17.50;;;11.00;32.50;;;;;;4961277;28;20852;-55
2022/11/13 12:23:10;;;;;;;18.80;17.80;;;11.00;32.40;;;;;;4961850;28;20320;-56
2022/11/13 12:26:05;;;;;;;17.90;16.90;;;11.10;32.00;;;;;;4961141;28;20456;-55
2022/11/13 12:28:44;;;;;;;19.10;18.10;;;11.10;32.20;;;;;;4943270;28;20449;-56
2022/11/13 12:31:18;;;;;;;17.70;16.80;;;11.10;32.00;;;;;;4960127;28;21064;-56
2022/11/13 12:34:23;;;;;;;17.67;16.67;;;11.20;31.50;;;;;;4959995;28;20977;-55
2022/11/13 12:36:51;;;;;;;19.00;18.00;;;11.20;32.10;;;;;;4957671;28;21105;-57
2022/11/13 12:39:38;;;;;;;19.03;17.80;;;11.20;31.50;;;;;;4963482;28;20456;-57
2022/11/13 12:42:41;;;;;;;17.87;16.87;;;11.20;32.30;;;;;;4961577;28;20445;-55
2022/11/13 12:45:44;;;;;;;18.97;17.77;;;11.30;33.10;;;;;;4968502;28;20841;-57
2022/11/13 12:48:21;;;;;;;19.80;18.77;;;11.40;31.60;;;;;;4959324;28;20468;-56
2022/11/13 12:51:01;;;;;;;18.53;17.53;;;11.50;31.20;;;;;;4956192;28;20544;-56
2022/11/13 12:53:30;;;;;;;17.90;16.90;;;11.60;31.10;;;;;;4939668;28;20481;-54